Time;durP1;ratioP1;P1;durP2;ratioP2;P2;SDS_P1;SDS_P2;PMS_P1;PMS_P2;Temp;Humidity;BMP_temperature;BMP_pressure;BME280_temperature;BME280_humidity;BME280_pressure;Samples;Min_cycle;Max_cycle;Signal;HPM_P1;HPM_P2
2023/01/20 00:01:54;;;;;;;36.22;18.00;;;0.30;99.90;;;;;;5007984;28;20045;-85
2023/01/20 00:04:29;;;;;;;33.70;16.87;;;-0.50;99.90;;;;;;5004433;28;20072;-83
2023/01/20 00:06:55;;;;;;;35.40;18.03;;;;;;;;;;5013543;28;20367;-84
2023/01/20 00:09:36;;;;;;;31.73;17.03;;;-0.90;99.90;;;;;;4995467;28;20489;-84
2023/01/20 00:12:14;;;;;;;31.33;15.37;;;-1.30;99.90;;;;;;4996245;28;20053;-84
2023/01/20 00:14:46;;;;;;;33.87;15.97;;;-0.70;99.90;;;;;;4995809;28;20503;-84
2023/01/20 00:17:11;;;;;;;28.40;14.93;;;1.10;99.90;;;;;;4995438;28;20038;-84
2023/01/20 00:19:46;;;;;;;32.57;15.83;;;-0.80;99.90;;;;;;4995556;28;20072;-84
2023/01/20 00:22:12;;;;;;;37.67;17.27;;;0.20;99.90;;;;;;4995626;28;20056;-84
2023/01/20 00:24:55;;;;;;;34.53;15.87;;;-0.50;99.90;;;;;;5012462;28;20042;-84
2023/01/20 00:27:21;;;;;;;31.67;15.93;;;-1.40;99.90;;;;;;5013315;28;20089;-84
2023/01/20 00:29:52;;;;;;;32.87;16.30;;;-1.20;99.90;;;;;;5012455;28;20081;-84
2023/01/20 00:32:18;;;;;;;40.50;17.43;;;;;;;;;;5012354;28;20405;-84
2023/01/20 00:34:52;;;;;;;36.20;16.67;;;-1.10;99.90;;;;;;5012529;28;20551;-84
2023/01/20 00:37:35;;;;;;;32.27;16.20;;;-1.00;99.90;;;;;;4994595;28;20129;-84
2023/01/20 00:40:26;;;;;;;34.95;16.35;;;0.80;99.90;;;;;;5005982;28;20145;-84
2023/01/20 00:43:06;;;;;;;28.80;14.60;;;-0.80;99.90;;;;;;5002811;28;20116;-84
2023/01/20 00:45:41;;;;;;;29.00;13.90;;;0.20;99.90;;;;;;4992878;28;20407;-84
2023/01/20 00:48:19;;;;;;;30.13;15.07;;;0.10;99.90;;;;;;4993689;28;20046;-84
2023/01/20 00:51:07;;;;;;;30.83;14.43;;;-0.80;99.90;;;;;;4974788;28;20038;-84
2023/01/20 00:53:48;;;;;;;28.60;14.57;;;-0.80;99.90;;;;;;4993060;28;20054;-84
2023/01/20 00:56:26;;;;;;;29.80;13.90;;;-0.60;99.90;;;;;;4975747;28;20046;-84
2023/01/20 00:59:03;;;;;;;32.10;15.13;;;-0.80;99.90;;;;;;4974899;28;20042;-84
2023/01/20 01:01:41;;;;;;;30.23;14.70;;;-0.50;99.90;;;;;;4975780;28;20057;-84
2023/01/20 01:04:28;;;;;;;31.37;15.60;;;1.60;99.90;;;;;;4975443;28;20055;-84
2023/01/20 01:07:00;;;;;;;26.87;13.77;;;-0.50;99.90;;;;;;4975724;28;20076;-84
2023/01/20 01:09:35;;;;;;;29.00;14.43;;;1.80;99.90;;;;;;4975275;28;20046;-84
2023/01/20 01:12:22;;;;;;;29.30;14.70;;;0.20;99.90;;;;;;4975288;28;20120;-84
2023/01/20 01:14:57;;;;;;;29.50;14.33;;;0.60;99.90;;;;;;4992441;28;20113;-84
2023/01/20 01:17:28;;;;;;;28.87;14.40;;;-0.50;99.90;;;;;;4999834;28;20040;-83
2023/01/20 01:20:11;;;;;;;28.90;14.73;;;1.30;99.90;;;;;;4994786;28;20046;-84
2023/01/20 01:22:46;;;;;;;31.50;14.77;;;0.00;99.90;;;;;;4992707;28;20602;-84
2023/01/20 01:25:30;;;;;;;29.00;14.50;;;0.20;99.90;;;;;;4992749;28;20120;-83
2023/01/20 01:28:17;;;;;;;30.27;14.90;;;-0.80;99.90;;;;;;4992584;28;20050;-84
2023/01/20 01:31:02;;;;;;;29.40;14.87;;;0.00;99.90;;;;;;4993054;28;20402;-83
2023/01/20 01:33:37;;;;;;;26.53;13.80;;;-0.40;99.90;;;;;;4991703;28;20045;-83
2023/01/20 01:36:04;;;;;;;29.53;13.70;;;0.00;99.90;;;;;;4975630;28;20505;-83
2023/01/20 01:38:42;;;;;;;28.97;14.07;;;0.00;99.90;;;;;;4976294;28;20053;-83
2023/01/20 01:41:43;;;;;;;27.30;14.17;;;0.40;99.90;;;;;;4975246;28;20051;-84
2023/01/20 01:44:12;;;;;;;27.97;14.20;;;1.00;99.90;;;;;;5013787;28;20052;-83
2023/01/20 01:46:39;;;;;;;29.37;15.07;;;-0.60;99.90;;;;;;5011547;28;20109;-83
2023/01/20 01:49:38;;;;;;;28.07;14.67;;;-0.30;99.90;;;;;;5011772;28;20042;-83
2023/01/20 01:52:25;;;;;;;29.03;14.73;;;0.50;99.90;;;;;;4994542;28;20046;-83
2023/01/20 01:54:52;;;;;;;29.03;14.27;;;0.40;99.90;;;;;;5021861;28;20057;-83
2023/01/20 01:57:34;;;;;;;26.90;13.43;;;0.60;99.90;;;;;;4998179;28;20459;-83
2023/01/20 02:00:05;;;;;;;28.80;14.63;;;0.80;99.90;;;;;;5015669;28;20041;-83
2023/01/20 02:02:44;;;;;;;28.13;13.43;;;0.10;99.90;;;;;;5014477;28;20512;-83
2023/01/20 02:05:14;;;;;;;26.17;13.33;;;0.60;99.90;;;;;;5015838;28;20103;-83
2023/01/20 02:07:44;;;;;;;25.17;13.10;;;0.10;99.90;;;;;;5015735;28;20139;-82
2023/01/20 02:10:10;;;;;;;26.07;14.33;;;0.70;99.90;;;;;;4997041;28;20052;-83
2023/01/20 02:12:48;;;;;;;26.63;13.43;;;1.30;99.90;;;;;;4998307;28;20053;-83
2023/01/20 02:15:26;;;;;;;25.03;13.63;;;1.30;99.90;;;;;;5014781;28;20056;-83
2023/01/20 02:18:47;;;;;;;24.33;12.00;;;-0.40;99.90;;;;;;4997673;28;20073;-82
2023/01/20 02:21:32;;;;;;;25.30;12.40;;;-0.60;99.90;;;;;;4997650;28;20474;-82
2023/01/20 02:24:41;;;;;;;21.90;11.27;;;-0.40;99.90;;;;;;4997106;28;20057;-83
2023/01/20 02:27:24;;;;;;;24.67;11.53;;;0.20;99.90;;;;;;5015723;28;20149;-83
2023/01/20 02:30:18;;;;;;;22.52;11.60;;;-0.10;99.90;;;;;;4996622;28;20056;-83
2023/01/20 02:32:56;;;;;;;22.13;11.50;;;0.30;99.90;;;;;;5003093;28;20046;-82
2023/01/20 02:35:42;;;;;;;20.80;11.00;;;-0.40;99.90;;;;;;5015243;28;20045;-82
2023/01/20 02:38:41;;;;;;;23.67;11.57;;;-0.60;99.90;;;;;;4997027;28;20379;-83
2023/01/20 02:41:12;;;;;;;22.17;11.43;;;-0.10;99.90;;;;;;5012313;28;20129;-83
2023/01/20 02:44:05;;;;;;;20.20;10.97;;;-0.30;99.90;;;;;;4996724;28;20050;-83
2023/01/20 02:46:52;;;;;;;22.13;11.50;;;0.40;99.90;;;;;;4997223;28;20077;-82
2023/01/20 02:49:58;;;;;;;23.47;12.10;;;-0.40;99.90;;;;;;4997063;28;20046;-83
2023/01/20 02:52:40;;;;;;;21.27;11.20;;;-0.20;99.90;;;;;;4996673;28;20133;-83
2023/01/20 02:55:10;;;;;;;21.60;11.17;;;0.30;99.90;;;;;;4997654;28;20056;-83
2023/01/20 02:57:54;;;;;;;21.80;11.13;;;-0.10;99.90;;;;;;5014328;28;20050;-82
2023/01/20 03:00:26;;;;;;;24.57;11.77;;;1.50;99.90;;;;;;5013897;28;20494;-83
2023/01/20 03:03:09;;;;;;;22.60;11.43;;;0.10;99.90;;;;;;4997015;28;20505;-83
2023/01/20 03:05:57;;;;;;;20.37;10.93;;;-0.20;99.90;;;;;;5013077;28;20046;-82
2023/01/20 03:08:41;;;;;;;21.40;11.13;;;1.10;99.90;;;;;;5016368;28;20433;-84
2023/01/20 03:11:18;;;;;;;22.98;12.18;;;0.40;99.90;;;;;;4998642;28;20061;-83
2023/01/20 03:14:08;;;;;;;22.20;12.03;;;-0.20;99.90;;;;;;4996927;28;20397;-83
2023/01/20 03:16:47;;;;;;;21.40;11.63;;;0.80;99.90;;;;;;5013948;28;20068;-83
2023/01/20 03:19:14;;;;;;;23.20;11.20;;;1.50;99.90;;;;;;4995880;28;20058;-83
2023/01/20 03:21:45;;;;;;;20.57;10.43;;;0.20;99.90;;;;;;5014450;28;20030;-84
2023/01/20 03:24:29;;;;;;;22.23;11.57;;;-0.20;99.90;;;;;;4999088;28;20114;-83
2023/01/20 03:27:13;;;;;;;23.13;11.93;;;-0.40;99.90;;;;;;5013569;28;20531;-83
2023/01/20 03:29:58;;;;;;;20.67;11.02;;;;;;;;;;5014584;28;20046;-83
2023/01/20 03:32:40;;;;;;;23.17;10.80;;;-0.10;99.90;;;;;;5052919;23;20056;-83
2023/01/20 03:35:33;;;;;;;20.20;10.93;;;-0.50;99.90;;;;;;4996315;28;20486;-83
2023/01/20 03:38:10;;;;;;;20.33;10.23;;;1.10;99.90;;;;;;5013757;28;20080;-83
2023/01/20 03:40:59;;;;;;;21.57;11.33;;;-0.90;99.90;;;;;;4995884;28;20517;-83
2023/01/20 03:43:40;;;;;;;21.33;10.57;;;0.30;99.90;;;;;;5049786;23;20050;-83
2023/01/20 03:46:51;;;;;;;20.40;10.50;;;-0.20;99.90;;;;;;5002824;28;20058;-83
2023/01/20 03:49:39;;;;;;;22.60;10.70;;;-0.60;99.90;;;;;;4992922;28;20073;-83
2023/01/20 03:52:31;;;;;;;19.93;10.27;;;-0.20;99.90;;;;;;4994561;28;20054;-83
2023/01/20 03:55:31;;;;;;;19.87;9.87;;;-0.10;99.90;;;;;;4993492;28;20046;-83
2023/01/20 03:58:20;;;;;;;20.63;10.87;;;0.20;99.90;;;;;;4992924;28;20050;-83
2023/01/20 04:01:02;;;;;;;19.50;10.53;;;-0.40;99.90;;;;;;4992253;28;20053;-83
2023/01/20 04:03:49;;;;;;;21.03;10.90;;;-0.40;99.90;;;;;;4992922;28;20080;-83
2023/01/20 04:06:25;;;;;;;20.60;10.33;;;1.60;99.90;;;;;;4992874;28;20046;-83
2023/01/20 04:09:12;;;;;;;20.60;11.07;;;0.10;99.90;;;;;;4991651;28;20054;-83
2023/01/20 04:11:38;;;;;;;21.27;10.23;;;2.70;99.90;;;;;;4992797;28;20479;-83
2023/01/20 04:14:22;;;;;;;20.57;10.60;;;-0.30;99.90;;;;;;4992734;28;20049;-83
2023/01/20 04:17:06;;;;;;;22.15;11.43;;;-0.10;99.90;;;;;;4991247;28;20490;-83
2023/01/20 04:19:50;;;;;;;19.37;9.50;;;-0.70;99.90;;;;;;4993194;28;20042;-83
2023/01/20 04:22:42;;;;;;;20.85;10.27;;;-0.30;99.90;;;;;;5006296;28;20050;-83
2023/01/20 04:25:29;;;;;;;21.17;10.23;;;-0.10;99.90;;;;;;5053277;23;20107;-83
2023/01/20 04:28:20;;;;;;;22.03;10.60;;;0.10;99.90;;;;;;4995447;28;20042;-83
2023/01/20 04:30:58;;;;;;;20.37;9.90;;;-0.10;99.90;;;;;;4994703;28;20088;-83
2023/01/20 04:33:46;;;;;;;20.70;9.83;;;-0.80;99.90;;;;;;5013152;28;20041;-83
2023/01/20 04:36:20;;;;;;;19.90;10.00;;;1.00;99.90;;;;;;5007666;28;20433;-83
2023/01/20 04:38:45;;;;;;;20.47;10.23;;;1.00;99.90;;;;;;5012784;28;20045;-83
2023/01/20 04:41:11;;;;;;;20.97;10.70;;;-0.50;99.90;;;;;;4994992;28;20042;-83
2023/01/20 04:43:37;;;;;;;20.60;10.07;;;0.70;99.90;;;;;;5011715;28;20050;-83
2023/01/20 04:46:06;;;;;;;22.13;10.37;;;-0.50;99.90;;;;;;4995640;28;20050;-83
2023/01/20 04:48:47;;;;;;;19.63;9.97;;;-0.10;99.90;;;;;;4995376;28;20045;-83
2023/01/20 04:51:12;;;;;;;20.93;10.50;;;1.10;99.90;;;;;;4994389;28;20038;-83
2023/01/20 04:53:56;;;;;;;21.87;11.03;;;;;;;;;;5015353;28;20042;-83
2023/01/20 04:56:22;;;;;;;21.20;9.82;;;-0.20;99.90;;;;;;4993116;28;20376;-83
2023/01/20 04:59:03;;;;;;;20.73;9.97;;;0.80;99.90;;;;;;5007960;23;20052;-83
2023/01/20 05:01:29;;;;;;;21.03;10.60;;;-0.40;99.90;;;;;;4991566;28;20050;-83
2023/01/20 05:03:55;;;;;;;20.90;10.53;;;-0.50;99.90;;;;;;5009080;28;20053;-83
2023/01/20 05:06:34;;;;;;;21.90;10.97;;;0.50;99.90;;;;;;4993948;28;20494;-83
2023/01/20 05:08:59;;;;;;;20.33;10.33;;;-0.40;99.90;;;;;;5012968;28;20135;-83
2023/01/20 05:11:43;;;;;;;21.83;9.90;;;0.50;99.90;;;;;;4993600;28;20135;-83
2023/01/20 05:14:12;;;;;;;21.70;10.50;;;-0.10;99.90;;;;;;5012509;28;20049;-83
2023/01/20 05:16:56;;;;;;;21.20;10.63;;;0.10;99.90;;;;;;5012987;28;20045;-83
2023/01/20 05:19:22;;;;;;;22.08;11.23;;;-0.20;99.90;;;;;;4994322;28;20212;-83
2023/01/20 05:22:03;;;;;;;23.47;11.47;;;-0.20;99.90;;;;;;5012392;28;20581;-83
2023/01/20 05:24:29;;;;;;;22.43;10.97;;;-0.40;99.90;;;;;;4995015;28;20422;-83
2023/01/20 05:26:58;;;;;;;22.97;11.57;;;-0.40;99.90;;;;;;5011653;28;20046;-83
2023/01/20 05:29:36;;;;;;;24.17;11.87;;;1.50;99.90;;;;;;5015027;28;20401;-83
2023/01/20 05:32:01;;;;;;;26.27;12.83;;;-0.10;99.90;;;;;;4997636;28;20050;-83
2023/01/20 05:34:27;;;;;;;24.67;12.83;;;-0.10;99.90;;;;;;4998277;28;20474;-83
2023/01/20 05:36:59;;;;;;;23.27;11.13;;;0.40;99.90;;;;;;5016361;28;20045;-83
2023/01/20 05:39:33;;;;;;;25.63;12.13;;;0.80;99.90;;;;;;4997628;28;20050;-83
2023/01/20 05:42:00;;;;;;;26.77;12.80;;;0.20;99.90;;;;;;5016284;28;20482;-83
2023/01/20 05:44:26;;;;;;;26.67;13.10;;;-0.30;99.90;;;;;;4998102;28;20053;-83
2023/01/20 05:47:07;;;;;;;28.60;12.90;;;-0.30;99.90;;;;;;4997601;28;20049;-83
2023/01/20 05:49:33;;;;;;;27.23;12.90;;;-0.10;99.90;;;;;;4998057;28;20046;-83
2023/01/20 05:52:17;;;;;;;28.33;13.37;;;0.20;99.90;;;;;;4998435;28;20038;-83
2023/01/20 05:54:43;;;;;;;23.93;11.70;;;-0.10;99.90;;;;;;4992734;28;20050;-84
2023/01/20 05:57:31;;;;;;;28.57;13.87;;;-0.30;99.90;;;;;;5015642;28;20638;-84
2023/01/20 05:59:57;;;;;;;27.83;13.90;;;0.60;99.90;;;;;;4958484;28;20530;-84
2023/01/20 06:02:48;;;;;;;28.83;14.23;;;0.30;99.90;;;;;;4994717;28;20050;-84
2023/01/20 06:05:26;;;;;;;29.33;13.93;;;-0.70;99.90;;;;;;4995701;28;20109;-84
2023/01/20 06:07:56;;;;;;;29.33;14.43;;;0.90;99.90;;;;;;4994427;28;20049;-84
2023/01/20 06:10:40;;;;;;;29.77;14.50;;;0.60;99.90;;;;;;4994542;28;20174;-84
2023/01/20 06:13:07;;;;;;;30.70;14.97;;;0.10;99.90;;;;;;4994825;28;20043;-84
2023/01/20 06:15:32;;;;;;;30.20;14.53;;;-0.50;99.90;;;;;;4995277;28;20062;-84
2023/01/20 06:18:16;;;;;;;29.33;14.10;;;-0.50;99.90;;;;;;4995516;28;20421;-84
2023/01/20 06:20:42;;;;;;;29.25;14.25;;;1.00;99.90;;;;;;4995471;28;20065;-84
2023/01/20 06:23:07;;;;;;;33.77;14.97;;;-0.30;99.90;;;;;;4994514;28;20117;-84
2023/01/20 06:25:44;;;;;;;31.67;15.03;;;0.40;99.90;;;;;;4993980;28;20078;-84
2023/01/20 06:28:10;;;;;;;33.40;14.90;;;0.70;99.90;;;;;;4993333;28;20049;-84
2023/01/20 06:30:36;;;;;;;32.40;15.20;;;0.90;99.90;;;;;;4997627;28;20040;-84
2023/01/20 06:33:17;;;;;;;32.73;14.80;;;-0.40;99.90;;;;;;4993978;28;20046;-84
2023/01/20 06:35:43;;;;;;;35.87;15.97;;;;;;;;;;4994566;28;20042;-83
2023/01/20 06:38:29;;;;;;;37.83;17.47;;;0.00;99.90;;;;;;4994803;28;20129;-84
2023/01/20 06:41:20;;;;;;;34.20;16.43;;;0.10;99.90;;;;;;4994758;28;20046;-84
2023/01/20 06:43:46;;;;;;;31.47;15.87;;;-0.60;99.90;;;;;;4993346;28;20046;-84
2023/01/20 06:46:24;;;;;;;32.77;16.07;;;0.60;99.90;;;;;;4993748;28;20046;-84
2023/01/20 06:48:49;;;;;;;35.13;16.60;;;0.00;99.90;;;;;;4994079;28;20043;-84
2023/01/20 06:51:19;;;;;;;33.17;16.13;;;-0.20;99.90;;;;;;4994458;28;20034;-84
2023/01/20 06:53:46;;;;;;;35.83;16.67;;;0.10;99.90;;;;;;4994127;28;20077;-84
2023/01/20 06:56:12;;;;;;;36.13;16.50;;;0.00;99.90;;;;;;4994395;28;20138;-84
2023/01/20 06:58:54;;;;;;;36.77;17.23;;;0.70;99.90;;;;;;4993162;28;20065;-84
2023/01/20 07:01:22;;;;;;;35.63;16.50;;;1.00;99.90;;;;;;4993487;28;20061;-84
2023/01/20 07:04:00;;;;;;;35.53;17.00;;;-0.40;99.90;;;;;;4993011;28;20115;-84
2023/01/20 07:06:29;;;;;;;36.50;17.37;;;0.60;99.90;;;;;;4993169;28;20050;-84
2023/01/20 07:08:56;;;;;;;39.10;18.07;;;-0.20;99.90;;;;;;4995236;28;20039;-84
2023/01/20 07:11:34;;;;;;;37.30;17.50;;;0.60;99.90;;;;;;4994846;28;20046;-84
2023/01/20 07:14:01;;;;;;;41.67;18.73;;;0.20;99.90;;;;;;4995618;28;20052;-84
2023/01/20 07:16:37;;;;;;;40.17;17.40;;;0.10;99.90;;;;;;4995000;28;20042;-83
2023/01/20 07:19:03;;;;;;;38.93;17.67;;;1.50;99.90;;;;;;4993956;28;20047;-80
2023/01/20 07:21:42;;;;;;;40.63;18.63;;;-0.10;99.90;;;;;;4992844;28;20054;-79
2023/01/20 07:24:08;;;;;;;40.93;18.90;;;0.00;99.90;;;;;;4993418;28;20096;-81
2023/01/20 07:26:35;;;;;;;41.77;18.47;;;0.10;99.90;;;;;;4993750;28;20551;-82
2023/01/20 07:29:08;;;;;;;39.87;18.80;;;1.60;99.90;;;;;;4991244;28;20437;-82
2023/01/20 07:31:33;;;;;;;42.65;18.58;;;0.20;99.90;;;;;;4993426;28;20081;-82
2023/01/20 07:34:02;;;;;;;42.87;19.93;;;0.20;99.90;;;;;;4994209;28;20059;-82
2023/01/20 07:36:28;;;;;;;42.43;19.07;;;0.20;99.90;;;;;;4992649;28;20475;-82
2023/01/20 07:38:53;;;;;;;40.47;18.43;;;0.20;99.90;;;;;;4993342;28;20042;-81
2023/01/20 07:41:20;;;;;;;39.57;18.37;;;0.20;99.90;;;;;;4994168;28;20043;-81
2023/01/20 07:43:48;;;;;;;39.83;19.00;;;0.20;99.90;;;;;;4994450;28;20073;-81
2023/01/20 07:46:14;;;;;;;41.67;19.60;;;0.20;99.90;;;;;;4991754;28;20038;-81
2023/01/20 07:48:40;;;;;;;41.23;19.77;;;0.20;99.90;;;;;;4994149;28;20097;-81
2023/01/20 07:51:08;;;;;;;41.83;19.63;;;0.20;99.90;;;;;;4993809;28;20549;-81
2023/01/20 07:53:37;;;;;;;41.50;19.07;;;0.30;99.90;;;;;;4991980;28;20053;-81
2023/01/20 07:56:05;;;;;;;43.77;20.27;;;0.30;99.90;;;;;;4991088;28;20053;-81
2023/01/20 07:58:31;;;;;;;39.13;18.73;;;0.30;99.90;;;;;;4997934;28;20042;-81
2023/01/20 08:00:57;;;;;;;42.90;19.30;;;0.30;99.90;;;;;;5079804;22;20046;-81
2023/01/20 08:03:24;;;;;;;41.37;19.17;;;0.20;99.90;;;;;;4995604;28;20050;-81
2023/01/20 08:06:05;;;;;;;38.57;18.30;;;2.20;99.90;;;;;;5013189;28;20046;-81
2023/01/20 08:08:32;;;;;;;42.60;19.40;;;0.30;99.90;;;;;;5012225;28;20125;-81
2023/01/20 08:10:58;;;;;;;37.77;18.13;;;0.30;99.90;;;;;;5013207;28;20413;-81
2023/01/20 08:13:24;;;;;;;39.30;17.43;;;0.30;99.90;;;;;;5012111;28;20042;-81
2023/01/20 08:15:49;;;;;;;38.17;17.60;;;0.30;99.90;;;;;;4994356;28;20061;-81
2023/01/20 08:18:15;;;;;;;35.17;16.83;;;0.30;99.90;;;;;;4993361;28;20050;-80
2023/01/20 08:20:41;;;;;;;35.50;17.00;;;0.30;99.90;;;;;;4983004;28;20045;-81
2023/01/20 08:23:06;;;;;;;35.47;16.97;;;0.20;99.90;;;;;;4985243;28;20053;-81
2023/01/20 08:25:32;;;;;;;35.93;16.77;;;0.30;99.90;;;;;;5003403;28;20038;-81
2023/01/20 08:27:58;;;;;;;39.20;17.20;;;0.20;99.90;;;;;;4981848;28;20042;-81
2023/01/20 08:30:23;;;;;;;36.20;17.47;;;0.20;99.90;;;;;;4983737;28;20095;-80
2023/01/20 08:32:49;;;;;;;36.60;17.33;;;0.20;99.90;;;;;;4984329;28;20087;-81
2023/01/20 08:35:15;;;;;;;37.63;18.60;;;0.20;99.90;;;;;;4981876;28;20490;-80
2023/01/20 08:37:41;;;;;;;37.60;18.50;;;1.40;99.90;;;;;;4981243;28;20105;-81
2023/01/20 08:40:08;;;;;;;36.03;17.50;;;0.20;99.90;;;;;;4980489;28;20534;-81
2023/01/20 08:42:35;;;;;;;35.87;17.50;;;0.20;99.90;;;;;;4991521;23;20054;-81
2023/01/20 08:45:01;;;;;;;35.13;16.90;;;0.20;99.90;;;;;;4978822;28;20096;-81
2023/01/20 08:47:27;;;;;;;38.30;17.43;;;0.30;99.90;;;;;;4976295;28;20043;-81
2023/01/20 08:49:53;;;;;;;36.37;17.47;;;0.30;99.90;;;;;;4979246;28;20053;-81
2023/01/20 08:52:18;;;;;;;35.83;16.70;;;0.30;99.90;;;;;;4977039;28;20852;-81
2023/01/20 08:54:44;;;;;;;33.23;16.27;;;0.20;99.90;;;;;;4979409;28;20049;-81
2023/01/20 08:57:10;;;;;;;32.83;16.20;;;0.30;99.90;;;;;;4979855;28;20042;-81
2023/01/20 08:59:35;;;;;;;33.53;15.50;;;0.30;99.90;;;;;;4977884;28;20118;-81
2023/01/20 09:02:01;;;;;;;38.70;17.07;;;0.30;99.90;;;;;;4973364;28;20149;-81
2023/01/20 09:04:27;;;;;;;36.03;16.87;;;0.30;99.90;;;;;;4982651;28;20048;-81
2023/01/20 09:06:52;;;;;;;35.63;17.33;;;0.30;99.90;;;;;;4981187;28;20475;-81
2023/01/20 09:09:20;;;;;;;34.93;15.67;;;0.30;99.90;;;;;;4980090;28;20046;-81
2023/01/20 09:11:52;;;;;;;36.50;16.63;;;0.30;99.90;;;;;;4983614;28;20125;-81
2023/01/20 09:14:19;;;;;;;39.40;17.83;;;0.30;99.90;;;;;;4987378;28;20078;-81
2023/01/20 09:16:45;;;;;;;39.63;18.60;;;0.30;99.90;;;;;;4982276;28;20090;-81
2023/01/20 09:19:10;;;;;;;40.03;19.00;;;0.30;99.90;;;;;;4984943;28;20069;-80
2023/01/20 09:21:36;;;;;;;40.43;18.80;;;0.20;99.90;;;;;;4980925;28;20047;-81
2023/01/20 09:24:01;;;;;;;44.23;19.73;;;0.30;99.90;;;;;;4985977;28;20177;-81
2023/01/20 09:26:27;;;;;;;43.83;19.40;;;0.20;99.90;;;;;;4995648;28;20089;-79
2023/01/20 09:28:52;;;;;;;40.77;18.17;;;0.20;99.90;;;;;;4995355;28;20042;-79
2023/01/20 09:31:19;;;;;;;39.10;18.67;;;0.20;99.90;;;;;;4994672;28;20050;-79
2023/01/20 09:33:44;;;;;;;37.17;17.70;;;0.30;99.90;;;;;;4995213;28;20137;-79
2023/01/20 09:36:10;;;;;;;38.27;18.37;;;0.30;99.90;;;;;;4994625;28;20138;-79
2023/01/20 09:44:41;;;;;;;41.10;18.03;;;0.40;99.90;;;;;;4994502;28;20090;-79
2023/01/20 09:47:26;;;;;;;40.63;17.83;;;0.40;99.90;;;;;;4994495;28;20046;-79
2023/01/20 09:55:38;;;;;;;43.03;18.10;;;0.50;99.90;;;;;;5002173;28;20050;-79
2023/01/20 09:58:15;;;;;;;37.33;17.83;;;0.50;99.90;;;;;;4996526;28;20462;-79
2023/01/20 10:01:13;;;;;;;42.13;17.70;;;0.50;99.90;;;;;;4994134;28;20042;-79
2023/01/20 10:03:51;;;;;;;41.23;18.20;;;0.50;99.90;;;;;;4982389;28;20085;-79
2023/01/20 10:06:28;;;;;;;43.57;19.77;;;0.50;99.90;;;;;;4994030;28;20053;-79
2023/01/20 10:09:00;;;;;;;42.90;18.27;;;0.50;99.90;;;;;;4994479;28;20092;-80
2023/01/20 10:11:30;;;;;;;39.57;18.37;;;0.50;99.90;;;;;;4993473;28;20080;-80
2023/01/20 10:14:14;;;;;;;40.10;18.57;;;0.50;99.90;;;;;;4992679;28;20493;-80
2023/01/20 10:16:58;;;;;;;39.97;17.55;;;0.50;99.90;;;;;;4993468;28;20046;-79
2023/01/20 10:19:33;;;;;;;;;;;0.60;99.90;;;;;;4995332;28;20453;-79
2023/01/20 10:22:19;;;;;;;38.40;17.10;;;0.60;99.90;;;;;;4993485;28;19922;-79
2023/01/20 10:25:07;;;;;;;41.33;18.63;;;0.60;99.90;;;;;;4993860;28;20055;-82
2023/01/20 10:27:38;;;;;;;44.40;20.17;;;0.60;99.90;;;;;;4989170;28;20042;-80
2023/01/20 10:30:10;;;;;;;42.70;18.43;;;0.70;99.90;;;;;;4989897;28;20034;-80
2023/01/20 10:32:47;;;;;;;43.23;19.43;;;0.70;99.90;;;;;;4988273;28;20053;-81
2023/01/20 10:35:24;;;;;;;42.90;18.27;;;0.70;99.90;;;;;;4980616;28;20141;-81
2023/01/20 10:37:52;;;;;;;41.93;19.13;;;0.70;99.90;;;;;;4979538;28;20111;-80
2023/01/20 10:40:52;;;;;;;44.63;19.20;;;0.70;99.90;;;;;;4981194;28;20057;-81
2023/01/20 10:43:19;;;;;;;39.13;18.80;;;0.70;99.90;;;;;;4963239;28;20054;-81
2023/01/20 10:45:59;;;;;;;39.93;17.50;;;0.80;99.90;;;;;;4978614;28;20056;-80
2023/01/20 10:48:57;;;;;;;38.70;18.03;;;0.80;99.90;;;;;;4990808;28;20070;-79
2023/01/20 10:51:49;;;;;;;39.40;17.77;;;0.70;99.90;;;;;;4983519;28;20050;-81
2023/01/20 10:54:36;;;;;;;37.43;17.07;;;0.70;99.90;;;;;;4981806;28;20141;-81
2023/01/20 10:57:04;;;;;;;37.77;16.80;;;0.70;99.90;;;;;;4980113;28;20094;-79
2023/01/20 10:59:36;;;;;;;41.30;17.50;;;0.80;99.90;;;;;;4993188;28;20176;-79
2023/01/20 11:02:27;;;;;;;35.53;16.53;;;0.80;99.90;;;;;;4993987;28;20394;-81
2023/01/20 11:05:17;;;;;;;37.90;16.93;;;0.80;99.90;;;;;;4991745;28;20042;-79
2023/01/20 11:07:45;;;;;;;34.03;15.80;;;0.80;99.90;;;;;;4983798;28;20069;-79
2023/01/20 11:10:17;;;;;;;35.97;15.23;;;0.90;99.90;;;;;;4983771;28;20566;-79
2023/01/20 11:12:45;;;;;;;34.83;15.47;;;0.90;99.90;;;;;;4975980;28;20046;-79
2023/01/20 11:15:20;;;;;;;37.40;15.73;;;0.90;99.90;;;;;;4987662;28;20046;-78
2023/01/20 11:18:12;;;;;;;40.97;16.03;;;0.90;99.90;;;;;;4982345;28;20038;-79
2023/01/20 11:20:41;;;;;;;37.87;16.67;;;0.90;99.90;;;;;;4982504;28;20077;-78
2023/01/20 11:23:20;;;;;;;34.60;14.00;;;0.90;99.90;;;;;;4980175;28;20243;-79
2023/01/20 11:26:01;;;;;;;34.83;16.03;;;0.90;99.90;;;;;;4982754;28;20073;-78
2023/01/20 11:28:35;;;;;;;35.60;15.93;;;1.00;99.90;;;;;;4984498;28;20070;-81
2023/01/20 11:31:01;;;;;;;;;;;2.80;99.90;;;;;;4982760;28;20030;-79
2023/01/20 11:33:28;;;;;;;36.50;14.93;;;0.90;99.90;;;;;;4986069;28;19991;-80
2023/01/20 11:36:00;;;;;;;33.03;14.47;;;0.90;99.90;;;;;;4983718;28;20137;-80
2023/01/20 11:38:47;;;;;;;32.83;14.53;;;0.90;99.90;;;;;;5072269;23;20107;-81
2023/01/20 11:41:23;;;;;;;32.33;13.90;;;0.90;99.90;;;;;;5022315;28;20573;-80
2023/01/20 11:43:54;;;;;;;33.20;14.90;;;1.00;99.90;;;;;;5005349;28;20036;-80
2023/01/20 11:46:31;;;;;;;37.77;15.57;;;1.00;99.90;;;;;;5020582;28;20094;-80
2023/01/20 11:49:18;;;;;;;31.57;15.07;;;0.90;99.90;;;;;;5013189;28;20044;-80
2023/01/20 11:51:55;;;;;;;32.27;15.37;;;0.90;99.90;;;;;;5026395;28;20049;-81
2023/01/20 11:54:23;;;;;;;33.00;14.57;;;1.00;99.90;;;;;;5032811;28;20068;-80
2023/01/20 11:57:17;;;;;;;34.43;14.67;;;1.00;99.90;;;;;;5119885;23;20015;-81
2023/01/20 12:00:18;;;;;;;32.22;14.57;;;0.90;99.90;;;;;;4995216;28;20053;-82
2023/01/20 12:03:17;;;;;;;33.93;14.87;;;1.30;99.90;;;;;;4981749;28;20057;-83
2023/01/20 12:06:03;;;;;;;31.67;14.37;;;0.40;99.90;;;;;;4995035;28;20054;-81
2023/01/20 12:08:55;;;;;;;32.57;14.23;;;1.00;99.90;;;;;;5011609;28;20060;-81
2023/01/20 12:11:47;;;;;;;33.10;14.10;;;1.00;99.90;;;;;;4995619;28;20058;-80
2023/01/20 12:14:37;;;;;;;33.70;14.40;;;0.80;99.90;;;;;;4989354;28;20046;-80
2023/01/20 12:17:18;;;;;;;31.33;13.73;;;0.80;99.90;;;;;;4999282;23;20081;-80
2023/01/20 12:19:56;;;;;;;31.43;14.50;;;1.10;99.90;;;;;;4964683;28;20039;-80
2023/01/20 12:22:30;;;;;;;32.17;14.73;;;1.10;99.90;;;;;;4960679;28;20038;-79
2023/01/20 12:25:19;;;;;;;31.50;15.40;;;1.10;99.90;;;;;;4979662;28;20089;-80
2023/01/20 12:28:18;;;;;;;33.03;15.13;;;1.30;99.90;;;;;;4969468;28;20562;-80
2023/01/20 12:31:01;;;;;;;32.87;14.67;;;1.10;99.90;;;;;;4961967;28;20050;-80
2023/01/20 12:33:31;;;;;;;33.97;15.10;;;1.10;99.90;;;;;;4965085;28;20569;-81
2023/01/20 12:36:11;;;;;;;30.80;15.30;;;1.00;99.90;;;;;;4966415;28;20112;-80
2023/01/20 12:39:11;;;;;;;37.60;16.20;;;1.00;99.90;;;;;;4963249;28;20403;-80
2023/01/20 12:41:55;;;;;;;31.73;14.70;;;1.00;99.90;;;;;;4964095;28;20494;-81
2023/01/20 12:44:24;;;;;;;37.90;15.67;;;1.00;99.90;;;;;;4967249;28;20045;-79
2023/01/20 12:47:31;;;;;;;34.17;15.53;;;1.00;99.90;;;;;;4983387;28;20291;-81
2023/01/20 12:50:21;;;;;;;32.53;14.83;;;1.00;99.90;;;;;;4945007;28;20067;-78
2023/01/20 12:53:11;;;;;;;35.33;16.13;;;1.10;99.90;;;;;;4962740;28;20046;-79
2023/01/20 12:55:58;;;;;;;35.63;15.07;;;1.10;99.90;;;;;;4959601;28;20039;-79
2023/01/20 12:58:47;;;;;;;33.70;15.60;;;1.10;99.90;;;;;;4961674;28;20054;-79
2023/01/20 13:01:25;;;;;;;35.47;16.27;;;1.10;99.90;;;;;;4953797;28;20514;-80
2023/01/20 13:04:16;;;;;;;35.53;16.00;;;1.10;99.90;;;;;;4960463;28;20066;-80
2023/01/20 13:07:03;;;;;;;37.20;15.67;;;1.10;99.90;;;;;;4981655;28;20565;-81
2023/01/20 13:09:31;;;;;;;37.50;15.93;;;1.20;99.90;;;;;;4979864;28;20417;-80
2023/01/20 13:12:13;;;;;;;36.00;16.43;;;1.10;99.90;;;;;;4959256;28;20046;-81
2023/01/20 13:14:49;;;;;;;36.83;16.80;;;1.10;99.90;;;;;;4963188;28;20056;-82
2023/01/20 13:17:37;;;;;;;39.00;17.97;;;1.10;99.90;;;;;;4953789;28;20059;-82
2023/01/20 13:20:03;;;;;;;34.90;15.13;;;1.10;99.90;;;;;;4958265;28;20388;-82
2023/01/20 13:22:30;;;;;;;35.67;15.60;;;1.10;99.90;;;;;;4961694;28;20051;-82
2023/01/20 13:24:58;;;;;;;33.97;16.07;;;1.10;99.90;;;;;;4956632;28;20551;-80
2023/01/20 13:27:35;;;;;;;36.47;16.23;;;1.10;99.90;;;;;;4955295;28;20066;-80
2023/01/20 13:30:06;;;;;;;35.77;16.03;;;1.10;99.90;;;;;;4962483;28;20061;-80
2023/01/20 13:32:44;;;;;;;31.63;15.87;;;1.10;99.90;;;;;;4960137;28;20093;-80
2023/01/20 13:35:16;;;;;;;36.33;16.97;;;1.00;99.90;;;;;;4960374;28;20054;-80